createdAt,value
2018-04-06T00:02:10.952Z,92.70
2018-04-06T00:04:39.824Z,92.70
2018-04-06T00:07:08.590Z,93.20
2018-04-06T00:09:37.406Z,93.00
2018-04-06T00:12:06.229Z,92.90
2018-04-06T00:14:34.259Z,92.90
2018-04-06T00:17:02.305Z,93.00
2018-04-06T00:19:31.125Z,93.00
2018-04-06T00:21:59.997Z,92.70
2018-04-06T00:24:28.033Z,92.70
2018-04-06T00:26:57.073Z,92.40
2018-04-06T00:29:25.867Z,92.00
2018-04-06T00:31:54.668Z,91.70
2018-04-06T00:34:22.730Z,91.70
2018-04-06T00:36:50.777Z,91.70
2018-04-06T00:39:19.583Z,91.50
2018-04-06T00:41:48.388Z,91.20
2018-04-06T00:44:17.210Z,91.30
2018-04-06T00:46:46.028Z,90.80
2018-04-06T00:49:14.835Z,90.80
2018-04-06T00:51:42.867Z,90.70
2018-04-06T00:54:10.907Z,90.80
2018-04-06T00:56:38.949Z,91.30
2018-04-06T00:59:06.988Z,91.70
2018-04-06T01:01:35.019Z,92.20
2018-04-06T01:04:04.627Z,93.00
2018-04-06T01:06:32.666Z,93.00
2018-04-06T01:09:01.472Z,92.50
2018-04-06T01:11:30.272Z,92.10
2018-04-06T01:13:58.384Z,92.10
2018-04-06T01:16:27.179Z,91.60
2018-04-06T01:18:55.228Z,91.60
2018-04-06T01:21:23.260Z,91.60
2018-04-06T01:23:51.310Z,91.60
2018-04-06T01:26:19.393Z,91.90
2018-04-06T01:28:48.204Z,92.20
2018-04-06T01:31:17.011Z,92.00
2018-04-06T01:33:45.815Z,91.90
2018-04-06T01:36:13.847Z,91.90
2018-04-06T01:38:41.958Z,91.90
2018-04-06T01:41:09.972Z,91.50
2018-04-06T01:43:38.013Z,91.30
2018-04-06T01:46:06.930Z,91.10
2018-04-06T01:48:35.736Z,90.90
2018-04-06T01:51:03.791Z,90.90
2018-04-06T01:53:31.823Z,91.10
2018-04-06T01:55:59.864Z,90.80
2018-04-06T01:58:27.899Z,90.90
2018-04-06T02:00:56.050Z,90.90
2018-04-06T02:03:24.073Z,90.80
2018-04-06T02:05:52.214Z,90.80
2018-04-06T02:08:20.247Z,90.90
2018-04-06T02:10:48.289Z,91.00
2018-04-06T02:13:16.322Z,91.40
2018-04-06T02:15:45.132Z,91.50
2018-04-06T02:18:13.931Z,91.40
2018-04-06T02:20:42.736Z,91.30
2018-04-06T02:23:10.787Z,91.30
2018-04-06T02:25:38.829Z,91.10
2018-04-06T02:28:06.873Z,90.80
2018-04-06T02:30:34.912Z,90.80
2018-04-06T02:33:02.962Z,90.90
2018-04-06T02:35:31.023Z,90.80
2018-04-06T02:37:59.146Z,90.80
2018-04-06T02:40:28.572Z,91.20
2018-04-06T02:42:57.384Z,91.40
2018-04-06T02:45:25.424Z,91.40
2018-04-06T02:47:53.472Z,91.60
2018-04-06T02:50:21.505Z,91.60
2018-04-06T02:52:49.543Z,91.50
2018-04-06T02:55:17.766Z,91.70
2018-04-06T02:57:46.559Z,91.60
2018-04-06T03:00:14.689Z,91.60
2018-04-06T03:02:42.729Z,91.50
2018-04-06T03:05:10.764Z,91.40
2018-04-06T03:07:39.564Z,91.50
2018-04-06T03:10:07.611Z,91.50
2018-04-06T03:12:35.656Z,91.40
2018-04-06T03:15:03.692Z,91.40
2018-04-06T03:17:31.781Z,91.30
2018-04-06T03:20:00.656Z,91.10
2018-04-06T03:22:28.703Z,91.10
2018-04-06T03:24:56.745Z,90.80
2018-04-06T03:27:24.790Z,90.60
2018-04-06T03:29:52.824Z,90.30
2018-04-06T03:32:20.864Z,90.30
2018-04-06T03:34:49.679Z,89.60
2018-04-06T03:37:18.510Z,90.00
2018-04-06T03:39:47.423Z,89.90
2018-04-06T03:42:16.226Z,89.30
2018-04-06T03:44:45.023Z,89.10
2018-04-06T03:47:13.088Z,89.00
2018-04-06T03:49:41.137Z,88.60
2018-04-06T03:52:09.183Z,88.40
2018-04-06T03:54:37.222Z,88.50
2018-04-06T03:57:05.276Z,88.50
2018-04-06T03:59:33.354Z,88.60
2018-04-06T04:02:02.143Z,88.90
2018-04-06T04:04:30.281Z,88.90
2018-04-06T04:06:58.319Z,88.60
2018-04-06T04:09:26.380Z,88.70
2018-04-06T04:11:55.222Z,88.60
2018-04-06T04:14:23.998Z,88.50
2018-04-06T04:16:52.028Z,88.40
2018-04-06T04:19:20.835Z,88.20
2018-04-06T04:21:49.636Z,87.80
2018-04-06T04:24:17.675Z,87.80
2018-04-06T04:26:45.722Z,88.10
2018-04-06T04:29:13.762Z,87.70
2018-04-06T04:31:42.563Z,87.80
2018-04-06T04:34:10.604Z,87.70
2018-04-06T04:36:38.631Z,87.40
2018-04-06T04:39:07.588Z,87.30
2018-04-06T04:41:35.624Z,87.30
2018-04-06T04:44:03.672Z,87.60
2018-04-06T04:46:32.488Z,87.40
2018-04-06T04:49:00.523Z,87.40
2018-04-06T04:51:28.648Z,87.40
2018-04-06T04:53:56.768Z,87.30
2018-04-06T04:56:25.593Z,87.90
2018-04-06T04:58:54.397Z,88.20
2018-04-06T05:01:22.443Z,88.20
2018-04-06T05:03:50.499Z,88.30
2018-04-06T05:06:18.588Z,88.10
2018-04-06T05:08:46.643Z,88.60
2018-04-06T05:11:14.689Z,88.40
2018-04-06T05:13:42.719Z,88.20
2018-04-06T05:16:10.764Z,87.90
2018-04-06T05:18:39.564Z,87.90
2018-04-06T05:21:07.728Z,87.80
2018-04-06T05:23:35.800Z,87.60
2018-04-06T05:26:03.839Z,87.20
2018-04-06T05:28:31.876Z,87.50
2018-04-06T05:30:59.996Z,87.40
2018-04-06T05:33:28.820Z,86.70
2018-04-06T05:35:57.639Z,86.90
2018-04-06T05:38:25.756Z,86.80
2018-04-06T05:40:54.576Z,86.40
2018-04-06T05:43:23.384Z,86.40
2018-04-06T05:45:52.212Z,86.00
2018-04-06T05:48:21.024Z,86.00
2018-04-06T05:50:49.824Z,85.80
2018-04-06T05:53:17.876Z,85.70
2018-04-06T05:55:45.919Z,85.10
2018-04-06T05:58:14.757Z,85.00
2018-04-06T06:00:42.764Z,84.90
2018-04-06T06:03:11.571Z,85.10
2018-04-06T06:05:39.611Z,85.00
2018-04-06T06:08:07.656Z,85.00
2018-04-06T06:10:35.691Z,84.60
2018-04-06T06:13:03.803Z,83.50
2018-04-06T06:15:32.620Z,83.40
2018-04-06T06:18:00.651Z,83.30
2018-04-06T06:20:28.700Z,83.00
2018-04-06T06:22:56.744Z,82.00
2018-04-06T06:25:25.548Z,81.80
2018-04-06T06:27:53.599Z,81.80
2018-04-06T06:30:21.632Z,81.90
2018-04-06T06:32:49.676Z,80.50
2018-04-06T06:35:17.740Z,81.30
2018-04-06T06:37:45.876Z,80.90
2018-04-06T06:40:14.697Z,79.60
2018-04-06T06:42:43.495Z,80.40
2018-04-06T06:45:11.544Z,80.40
2018-04-06T06:47:39.595Z,80.60
2018-04-06T06:50:07.731Z,79.10
2018-04-06T06:52:35.768Z,78.20
2018-04-06T06:55:03.828Z,77.30
2018-04-06T06:57:31.858Z,76.80
2018-04-06T06:59:59.904Z,77.40
2018-04-06T07:02:28.752Z,77.60
2018-04-06T07:04:56.876Z,77.70
2018-04-06T07:07:24.912Z,77.40
2018-04-06T07:09:52.944Z,75.50
2018-04-06T07:12:20.992Z,75.90
2018-04-06T07:14:49.682Z,75.70
2018-04-06T07:17:17.804Z,74.90
2018-04-06T07:19:45.864Z,72.40
2018-04-06T07:22:13.902Z,74.40
2018-04-06T07:24:42.715Z,73.20
2018-04-06T07:27:11.527Z,73.70
2018-04-06T07:29:40.341Z,72.00
2018-04-06T07:32:08.478Z,72.60
2018-04-06T07:34:37.379Z,72.70
2018-04-06T07:37:06.184Z,71.90
2018-04-06T07:39:34.215Z,71.90
2018-04-06T07:42:02.262Z,73.60
2018-04-06T07:44:30.292Z,69.30
2018-04-06T07:46:59.211Z,72.20
2018-04-06T07:49:28.012Z,70.00
2018-04-06T07:51:56.075Z,70.00
2018-04-06T07:54:24.112Z,69.60
2018-04-06T07:56:52.161Z,68.00
2018-04-06T07:59:20.193Z,68.90
2018-04-06T08:01:48.586Z,70.10
2018-04-06T08:04:16.636Z,70.10
2018-04-06T08:06:45.433Z,66.20
2018-04-06T08:09:13.480Z,66.10
2018-04-06T08:11:41.560Z,65.50
2018-04-06T08:14:10.399Z,66.20
2018-04-06T08:16:38.452Z,66.30
2018-04-06T08:19:06.573Z,65.60
2018-04-06T08:21:35.372Z,65.70
2018-04-06T08:24:03.428Z,65.50
2018-04-06T08:26:31.459Z,63.80
2018-04-06T08:28:59.528Z,62.50
2018-04-06T08:31:27.567Z,61.50
2018-04-06T08:33:55.623Z,59.70
2018-04-06T08:36:24.555Z,60.70
2018-04-06T08:38:52.615Z,60.70
2018-04-06T08:41:20.669Z,59.50
2018-04-06T08:43:48.719Z,58.60
2018-04-06T08:46:16.756Z,59.40
2018-04-06T08:48:44.800Z,61.20
2018-04-06T08:51:12.856Z,59.50
2018-04-06T08:53:41.658Z,58.00
2018-04-06T08:56:10.756Z,56.10
2018-04-06T08:58:38.801Z,56.10
2018-04-06T09:01:06.984Z,56.50
2018-04-06T09:03:35.787Z,58.10
2018-04-06T09:06:03.857Z,58.10
2018-04-06T09:08:31.916Z,55.90
2018-04-06T09:11:00.720Z,56.20
2018-04-06T09:13:28.778Z,56.10
2018-04-06T09:15:56.836Z,53.80
2018-04-06T09:18:24.877Z,55.00
2018-04-06T09:20:52.925Z,55.70
2018-04-06T09:23:20.987Z,54.90
2018-04-06T09:25:49.045Z,54.10
2018-04-06T09:28:17.085Z,55.70
2018-04-06T09:30:45.151Z,54.50
2018-04-06T09:33:13.193Z,53.60
2018-04-06T09:35:41.245Z,53.00
2018-04-06T09:38:09.304Z,53.00
2018-04-06T09:40:37.352Z,54.20
2018-04-06T09:43:05.392Z,53.20
2018-04-06T09:45:33.451Z,51.50
2018-04-06T09:48:01.490Z,53.30
2018-04-06T09:50:29.539Z,51.80
2018-04-06T09:52:57.588Z,52.00
2018-04-06T09:55:26.475Z,53.10
2018-04-06T09:57:54.500Z,53.00
2018-04-06T10:00:28.118Z,53.00
2018-04-06T10:02:57.003Z,52.40
2018-04-06T10:05:25.755Z,49.50
2018-04-06T10:07:53.816Z,49.80
2018-04-06T10:10:22.623Z,48.30
2018-04-06T10:12:50.673Z,48.20
2018-04-06T10:15:18.712Z,50.40
2018-04-06T10:17:46.875Z,49.20
2018-04-06T10:20:14.920Z,47.70
2018-04-06T10:25:18.063Z,48.70
2018-04-06T10:27:46.888Z,47.60
2018-04-06T10:30:15.709Z,48.40
2018-04-06T10:32:44.531Z,48.60
2018-04-06T10:35:13.429Z,49.20
2018-04-06T10:37:42.178Z,46.40
2018-04-06T10:40:10.980Z,47.90
2018-04-06T10:42:39.055Z,47.80
2018-04-06T10:45:07.097Z,46.40
2018-04-06T10:47:35.140Z,48.00
2018-04-06T10:50:03.201Z,46.60
2018-04-06T10:52:31.244Z,45.30
2018-04-06T10:54:59.335Z,43.00
2018-04-06T10:57:27.428Z,41.90
2018-04-06T10:59:56.250Z,44.10
2018-04-06T11:02:24.339Z,44.10
2018-04-06T11:04:53.145Z,42.00
2018-04-06T11:07:21.192Z,41.90
2018-04-06T11:09:49.288Z,44.50
2018-04-06T11:12:17.328Z,43.30
2018-04-06T11:14:45.392Z,42.30
2018-04-06T11:17:13.447Z,41.30
2018-04-06T11:19:41.488Z,42.20
2018-04-06T11:22:09.554Z,43.10
2018-04-06T11:24:37.608Z,44.60
2018-04-06T11:27:05.688Z,42.20
2018-04-06T11:29:34.516Z,41.50
2018-04-06T11:32:03.374Z,43.70
2018-04-06T11:34:32.152Z,41.50
2018-04-06T11:37:01.089Z,41.40
2018-04-06T11:39:29.911Z,40.90
2018-04-06T11:41:58.728Z,39.90
2018-04-06T11:44:27.556Z,40.40
2018-04-06T11:46:56.365Z,42.30
2018-04-06T11:49:25.173Z,41.20
2018-04-06T11:51:53.239Z,41.20
2018-04-06T11:54:21.276Z,41.90
2018-04-06T11:56:50.099Z,40.50
2018-04-06T11:59:18.914Z,41.80
2018-04-06T12:01:47.761Z,41.70
2018-04-06T12:04:15.893Z,41.70
2018-04-06T12:06:43.954Z,38.90
2018-04-06T12:09:12.017Z,42.10
2018-04-06T12:11:40.073Z,40.50
2018-04-06T12:14:08.881Z,35.00
2018-04-06T12:16:36.991Z,35.00
2018-04-06T12:19:05.062Z,38.80
2018-04-06T12:21:33.099Z,39.60
2018-04-06T12:24:01.165Z,42.20
2018-04-06T12:26:29.204Z,38.40
2018-04-06T12:28:57.244Z,40.60
2018-04-06T12:31:26.064Z,42.50
2018-04-06T12:33:54.884Z,38.70
2018-04-06T12:36:22.929Z,38.70
2018-04-06T12:38:50.996Z,39.20
2018-04-06T12:41:19.060Z,42.30
2018-04-06T12:43:47.104Z,39.90
2018-04-06T12:46:15.311Z,40.90
2018-04-06T12:48:43.368Z,39.80
2018-04-06T12:51:11.408Z,40.30
2018-04-06T12:53:40.232Z,39.40
2018-04-06T12:56:08.274Z,39.00
2018-04-06T12:58:36.331Z,39.10
2018-04-06T13:01:05.168Z,37.00
2018-04-06T13:03:33.971Z,37.70
2018-04-06T13:06:02.776Z,36.90
2018-04-06T13:08:30.836Z,36.90
2018-04-06T13:10:59.659Z,35.40
2018-04-06T13:13:27.715Z,35.40
2018-04-06T13:15:55.753Z,36.70
2018-04-06T13:18:24.568Z,36.50
2018-04-06T13:20:53.413Z,39.30
2018-04-06T13:23:21.484Z,38.70
2018-04-06T13:25:49.512Z,37.10
2018-04-06T13:28:19.319Z,37.40
2018-04-06T13:30:47.371Z,37.30
2018-04-06T13:33:15.412Z,36.90
2018-04-06T13:35:43.496Z,38.20
2018-04-06T13:38:11.573Z,39.50
2018-04-06T13:40:40.368Z,38.50
2018-04-06T13:43:09.196Z,38.50
2018-04-06T13:45:38.026Z,37.80
2018-04-06T13:48:06.853Z,36.70
2018-04-06T13:50:34.904Z,36.60
2018-04-06T13:53:02.975Z,36.50
2018-04-06T13:55:31.024Z,38.30
2018-04-06T13:58:00.576Z,36.10
2018-04-06T14:00:28.633Z,36.00
2018-04-06T14:02:56.668Z,36.70
2018-04-06T14:05:24.730Z,36.90
2018-04-06T14:07:52.775Z,38.60
2018-04-06T14:10:20.820Z,38.00
2018-04-06T14:12:48.873Z,38.20
2018-04-06T14:15:16.939Z,39.20
2018-04-06T14:17:44.975Z,39.40
2018-04-06T14:20:14.524Z,37.30
2018-04-06T14:22:42.588Z,37.80
2018-04-06T14:25:10.640Z,38.90
2018-04-06T14:27:38.693Z,38.10
2018-04-06T14:30:06.740Z,37.60
2018-04-06T14:32:34.792Z,39.20
2018-04-06T14:35:02.828Z,40.00
2018-04-06T14:37:30.882Z,40.20
2018-04-06T14:39:59.684Z,38.20
2018-04-06T14:42:27.741Z,38.20
2018-04-06T14:44:55.779Z,39.40
2018-04-06T14:47:23.828Z,38.40
2018-04-06T14:49:51.883Z,38.70
2018-04-06T14:52:20.687Z,40.00
2018-04-06T14:54:49.507Z,39.10
2018-04-06T14:57:18.324Z,39.20
2018-04-06T14:59:47.171Z,40.70
2018-04-06T15:02:15.223Z,40.80
2018-04-06T15:04:43.272Z,39.30
2018-04-06T15:07:11.324Z,37.30
2018-04-06T15:09:39.440Z,40.30
2018-04-06T15:12:08.286Z,39.10
2018-04-06T15:14:36.335Z,39.10
2018-04-06T15:17:04.364Z,39.00
2018-04-06T15:19:32.444Z,38.70
2018-04-06T15:22:01.261Z,39.60
2018-04-06T15:24:30.055Z,40.60
2018-04-06T15:26:59.621Z,39.80
2018-04-06T15:29:27.661Z,39.80
2018-04-06T15:31:55.716Z,39.50
2018-04-06T15:34:23.763Z,39.20
2018-04-06T15:36:51.812Z,39.20
2018-04-06T15:39:19.872Z,40.40
2018-04-06T15:41:48.679Z,39.80
2018-04-06T15:44:16.717Z,39.70
2018-04-06T15:46:44.786Z,39.80
2018-04-06T15:49:13.621Z,40.20
2018-04-06T15:51:41.708Z,40.20
2018-04-06T15:54:10.536Z,40.90
2018-04-06T15:56:38.626Z,40.80
2018-04-06T15:59:07.444Z,41.30
2018-04-06T16:01:35.504Z,41.30
2018-04-06T16:04:03.546Z,41.10
2018-04-06T16:06:31.583Z,42.10
2018-04-06T16:08:59.640Z,41.00
2018-04-06T16:11:27.705Z,41.90
2018-04-06T16:13:55.740Z,41.30
2018-04-06T16:16:23.779Z,41.90
2018-04-06T16:18:51.836Z,41.50
2018-04-06T16:21:19.889Z,42.30
2018-04-06T16:23:48.708Z,42.00
2018-04-06T16:26:17.553Z,41.90
2018-04-06T16:28:46.356Z,41.80
2018-04-06T16:31:14.396Z,41.70
2018-04-06T16:33:42.429Z,43.10
2018-04-06T16:36:11.245Z,42.30
2018-04-06T16:38:39.279Z,42.20
2018-04-06T16:41:08.107Z,43.00
2018-04-06T16:43:36.154Z,43.00
2018-04-06T16:46:04.972Z,42.50
2018-04-06T16:48:33.800Z,42.20
2018-04-06T16:51:01.844Z,42.30
2018-04-06T16:53:29.885Z,42.80
2018-04-06T16:55:57.945Z,42.70
2018-04-06T16:58:25.983Z,42.20
2018-04-06T17:00:54.052Z,42.60
2018-04-06T17:03:22.850Z,42.60
2018-04-06T17:05:50.896Z,42.60
2018-04-06T17:08:20.028Z,43.50
2018-04-06T17:10:48.070Z,44.30
2018-04-06T17:13:16.123Z,43.90
2018-04-06T17:15:44.931Z,45.30
2018-04-06T17:18:13.047Z,45.20
2018-04-06T17:20:41.847Z,45.60
2018-04-06T17:23:09.916Z,45.50
2018-04-06T17:25:37.956Z,45.10
2018-04-06T17:28:06.758Z,46.70
2018-04-06T17:30:34.810Z,46.70
2018-04-06T17:33:02.850Z,46.80
2018-04-06T17:35:30.980Z,46.30
2018-04-06T17:37:59.018Z,46.70
2018-04-06T17:40:27.268Z,47.50
2018-04-06T17:42:55.305Z,47.80
2018-04-06T17:45:23.362Z,47.90
2018-04-06T17:47:52.177Z,49.00
2018-04-06T17:50:20.309Z,48.90
2018-04-06T17:52:48.349Z,49.60
2018-04-06T17:55:16.383Z,49.90
2018-04-06T17:57:44.440Z,50.20
2018-04-06T18:00:13.249Z,50.40
2018-04-06T18:02:41.306Z,49.70
2018-04-06T18:05:09.356Z,49.50
2018-04-06T18:07:37.413Z,49.60
2018-04-06T18:10:05.456Z,50.20
2018-04-06T18:12:34.259Z,50.20
2018-04-06T18:15:03.081Z,50.30
2018-04-06T18:17:31.897Z,49.90
2018-04-06T18:20:00.711Z,50.40
2018-04-06T18:22:29.520Z,50.00
2018-04-06T18:24:58.339Z,50.70
2018-04-06T18:27:27.201Z,50.20
2018-04-06T18:29:55.196Z,50.20
2018-04-06T18:32:23.484Z,49.70
2018-04-06T18:34:51.519Z,50.20
2018-04-06T18:37:19.612Z,50.30
2018-04-06T18:39:47.645Z,50.90
2018-04-06T18:42:16.464Z,51.00
2018-04-06T18:44:45.311Z,51.90
2018-04-06T18:47:14.093Z,51.60
2018-04-06T18:49:42.911Z,51.80
2018-04-06T18:52:11.060Z,51.80
2018-04-06T18:54:39.805Z,52.40
2018-04-06T18:57:07.840Z,52.40
2018-04-06T18:59:35.905Z,52.80
2018-04-06T19:02:04.712Z,53.00
2018-04-06T19:04:32.757Z,53.50
2018-04-06T19:07:00.796Z,53.20
2018-04-06T19:09:28.856Z,53.00
2018-04-06T19:11:57.021Z,52.70
2018-04-06T19:14:25.859Z,52.90
2018-04-06T19:16:53.907Z,52.90
2018-04-06T19:19:21.957Z,53.00
2018-04-06T19:21:50.068Z,52.90
2018-04-06T19:24:18.109Z,53.00
2018-04-06T19:26:46.173Z,53.20
2018-04-06T19:29:14.236Z,53.70
2018-04-06T19:31:42.292Z,53.40
2018-04-06T19:34:11.099Z,53.80
2018-04-06T19:36:39.163Z,53.90
2018-04-06T19:39:07.203Z,53.90
2018-04-06T19:41:35.333Z,54.10
2018-04-06T19:44:04.140Z,53.90
2018-04-06T19:46:32.952Z,54.60
2018-04-06T19:49:01.769Z,54.90
2018-04-06T19:51:30.594Z,54.70
2018-04-06T19:53:59.503Z,54.60
2018-04-06T19:56:28.313Z,55.00
2018-04-06T19:58:57.131Z,55.00
2018-04-06T20:01:25.948Z,55.10
2018-04-06T20:03:54.781Z,55.10
2018-04-06T20:06:23.648Z,55.20
2018-04-06T20:08:53.342Z,55.30
2018-04-06T20:11:22.121Z,54.60
2018-04-06T20:13:50.939Z,55.10
2018-04-06T20:16:19.748Z,55.20
2018-04-06T20:18:48.559Z,55.40
2018-04-06T20:21:17.368Z,55.40
2018-04-06T20:23:46.171Z,55.70
2018-04-06T20:26:15.741Z,55.70
2018-04-06T20:28:43.776Z,55.70
2018-04-06T20:31:11.816Z,55.20
2018-04-06T20:33:40.636Z,55.30
2018-04-06T20:36:09.528Z,55.70
2018-04-06T20:38:39.080Z,55.70
2018-04-06T20:41:07.884Z,55.80
2018-04-06T20:43:35.940Z,55.80
2018-04-06T20:46:03.976Z,56.60
2018-04-06T20:48:32.024Z,55.60
2018-04-06T20:51:00.077Z,55.70
2018-04-06T20:53:28.124Z,56.10
2018-04-06T20:55:56.179Z,56.50
2018-04-06T20:58:24.997Z,56.20
2018-04-06T21:00:53.812Z,56.10
2018-04-06T21:03:22.619Z,56.40
2018-04-06T21:05:51.437Z,57.10
2018-04-06T21:08:20.356Z,55.80
2018-04-06T21:10:49.159Z,56.30
2018-04-06T21:13:18.081Z,56.10
2018-04-06T21:15:46.899Z,56.00
2018-04-06T21:18:15.700Z,56.30
2018-04-06T21:20:44.507Z,55.70
2018-04-06T21:23:12.561Z,55.70
2018-04-06T21:25:40.598Z,55.70
2018-04-06T21:28:08.657Z,55.70
2018-04-06T21:30:36.699Z,55.80
2018-04-06T21:33:04.752Z,56.10
2018-04-06T21:35:32.787Z,55.70
2018-04-06T21:38:00.852Z,56.20
2018-04-06T21:40:28.882Z,55.90
2018-04-06T21:42:56.924Z,56.80
2018-04-06T21:45:24.983Z,56.80
2018-04-06T21:47:53.020Z,56.80
2018-04-06T21:50:21.084Z,57.20
2018-04-06T21:52:49.884Z,57.20
2018-04-06T21:55:17.928Z,57.10
2018-04-06T21:57:45.984Z,57.80
2018-04-06T22:00:14.791Z,57.20
2018-04-06T22:02:43.607Z,57.30
2018-04-06T22:05:11.656Z,57.10
2018-04-06T22:07:39.728Z,57.20
2018-04-06T22:10:07.775Z,57.20
2018-04-06T22:12:36.603Z,57.40
2018-04-06T22:15:04.644Z,57.00
2018-04-06T22:17:32.679Z,56.80
2018-04-06T22:20:00.740Z,57.50
2018-04-06T22:22:28.795Z,57.60
2018-04-06T22:24:56.844Z,57.90
2018-04-06T22:27:24.904Z,57.60
2018-04-06T22:29:53.726Z,57.30
2018-04-06T22:32:22.536Z,57.40
2018-04-06T22:34:51.350Z,57.60
2018-04-06T22:37:20.171Z,57.80
2018-04-06T22:39:48.245Z,57.80
2018-04-06T22:42:17.051Z,58.50
2018-04-06T22:44:45.273Z,58.30
2018-04-06T22:47:14.089Z,59.30
2018-04-06T22:49:42.896Z,58.40
2018-04-06T22:52:11.712Z,59.70
2018-04-06T22:54:40.516Z,59.90
2018-04-06T22:57:08.568Z,59.90
2018-04-06T22:59:36.615Z,60.60
2018-04-06T23:02:05.415Z,60.00
2018-04-06T23:04:33.473Z,60.00
2018-04-06T23:07:01.512Z,60.30
2018-04-06T23:09:29.548Z,60.00
2018-04-06T23:11:57.596Z,60.00
2018-04-06T23:14:27.256Z,60.20
2018-04-06T23:16:56.171Z,60.30
2018-04-06T23:19:24.983Z,59.90
2018-04-06T23:21:53.788Z,60.40
2018-04-06T23:24:21.838Z,60.40
2018-04-06T23:26:49.860Z,61.20
2018-04-06T23:29:17.899Z,61.00
2018-04-06T23:31:45.933Z,60.70
2018-04-06T23:34:13.969Z,61.30
2018-04-06T23:36:42.084Z,61.50
2018-04-06T23:39:10.889Z,61.20
2018-04-06T23:41:39.688Z,61.10
2018-04-06T23:44:07.724Z,61.90
2018-04-06T23:46:35.758Z,61.70
2018-04-06T23:49:03.792Z,62.10
2018-04-06T23:51:32.592Z,62.10
2018-04-06T23:54:01.389Z,62.60
2018-04-06T23:56:29.487Z,62.60
2018-04-06T23:58:57.516Z,62.40
